sensor_id;sensor_type;location;lat;lon;timestamp;pressure;altitude;pressure_sealevel;temperature;humidity
74242;BME280;62599;49.146;10.426;2023-07-13T00:00:27;95677.75;;;18.49;72.43
74242;BME280;62599;49.146;10.426;2023-07-13T00:02:53;95673.44;;;18.45;71.86
74242;BME280;62599;49.146;10.426;2023-07-13T00:05:20;95670.66;;;18.34;72.59
74242;BME280;62599;49.146;10.426;2023-07-13T00:07:45;95674.50;;;18.26;72.89
74242;BME280;62599;49.146;10.426;2023-07-13T00:10:11;95674.09;;;18.20;73.09
74242;BME280;62599;49.146;10.426;2023-07-13T00:12:37;95668.19;;;18.15;73.18
74242;BME280;62599;49.146;10.426;2023-07-13T00:15:11;95670.13;;;18.11;73.23
74242;BME280;62599;49.146;10.426;2023-07-13T00:17:37;95667.34;;;18.03;72.82
74242;BME280;62599;49.146;10.426;2023-07-13T00:20:05;95667.31;;;17.96;72.99
74242;BME280;62599;49.146;10.426;2023-07-13T00:22:30;95662.25;;;17.95;73.04
74242;BME280;62599;49.146;10.426;2023-07-13T00:24:56;95657.97;;;17.94;72.71
74242;BME280;62599;49.146;10.426;2023-07-13T00:27:22;95658.34;;;17.92;72.39
74242;BME280;62599;49.146;10.426;2023-07-13T00:29:48;95657.53;;;17.88;72.56
74242;BME280;62599;49.146;10.426;2023-07-13T00:32:14;95659.81;;;17.83;73.03
74242;BME280;62599;49.146;10.426;2023-07-13T00:34:39;95675.00;;;17.80;73.22
74242;BME280;62599;49.146;10.426;2023-07-13T00:37:06;95666.41;;;17.78;73.29
74242;BME280;62599;49.146;10.426;2023-07-13T00:39:33;95675.69;;;17.73;73.32
74242;BME280;62599;49.146;10.426;2023-07-13T00:41:59;95677.97;;;17.68;73.83
74242;BME280;62599;49.146;10.426;2023-07-13T00:44:25;95674.06;;;17.62;74.13
74242;BME280;62599;49.146;10.426;2023-07-13T00:46:51;95684.91;;;17.58;74.24
74242;BME280;62599;49.146;10.426;2023-07-13T00:49:20;95681.75;;;17.52;74.79
74242;BME280;62599;49.146;10.426;2023-07-13T00:51:53;95684.78;;;17.44;74.93
74242;BME280;62599;49.146;10.426;2023-07-13T00:54:26;95688.63;;;17.39;75.63
74242;BME280;62599;49.146;10.426;2023-07-13T00:56:56;95683.13;;;17.32;75.87
74242;BME280;62599;49.146;10.426;2023-07-13T00:59:23;95692.00;;;17.25;75.78
74242;BME280;62599;49.146;10.426;2023-07-13T01:01:49;95695.06;;;17.20;76.05
74242;BME280;62599;49.146;10.426;2023-07-13T01:04:15;95690.31;;;17.14;76.42
74242;BME280;62599;49.146;10.426;2023-07-13T01:06:41;95692.56;;;17.04;76.90
74242;BME280;62599;49.146;10.426;2023-07-13T01:09:09;95688.59;;;16.98;77.08
74242;BME280;62599;49.146;10.426;2023-07-13T01:11:35;95690.13;;;16.92;77.04
74242;BME280;62599;49.146;10.426;2023-07-13T01:14:01;95686.56;;;16.88;77.10
74242;BME280;62599;49.146;10.426;2023-07-13T01:16:30;95689.66;;;16.87;76.89
74242;BME280;62599;49.146;10.426;2023-07-13T01:18:57;95690.78;;;16.82;76.89
74242;BME280;62599;49.146;10.426;2023-07-13T01:21:23;95698.94;;;16.82;76.95
74242;BME280;62599;49.146;10.426;2023-07-13T01:23:49;95688.75;;;16.75;76.93
74242;BME280;62599;49.146;10.426;2023-07-13T01:26:15;95703.44;;;16.71;76.98
74242;BME280;62599;49.146;10.426;2023-07-13T01:28:40;95690.94;;;16.66;77.15
74242;BME280;62599;49.146;10.426;2023-07-13T01:31:05;95693.59;;;16.63;77.06
74242;BME280;62599;49.146;10.426;2023-07-13T01:33:31;95695.59;;;16.66;76.77
74242;BME280;62599;49.146;10.426;2023-07-13T01:35:56;95695.63;;;16.69;75.88
74242;BME280;62599;49.146;10.426;2023-07-13T01:38:25;95702.63;;;16.67;76.22
74242;BME280;62599;49.146;10.426;2023-07-13T01:40:51;95696.38;;;16.66;76.01
74242;BME280;62599;49.146;10.426;2023-07-13T01:43:18;95705.66;;;16.61;75.96
74242;BME280;62599;49.146;10.426;2023-07-13T01:45:43;95711.81;;;16.58;75.80
74242;BME280;62599;49.146;10.426;2023-07-13T01:48:10;95711.78;;;16.55;76.11
74242;BME280;62599;49.146;10.426;2023-07-13T01:50:35;95707.06;;;16.52;76.42
74242;BME280;62599;49.146;10.426;2023-07-13T01:53:01;95715.19;;;16.48;76.63
74242;BME280;62599;49.146;10.426;2023-07-13T01:55:27;95719.41;;;16.42;76.30
74242;BME280;62599;49.146;10.426;2023-07-13T01:57:53;95716.19;;;16.36;76.79
74242;BME280;62599;49.146;10.426;2023-07-13T02:00:19;95709.59;;;16.34;76.98
74242;BME280;62599;49.146;10.426;2023-07-13T02:02:44;95708.00;;;16.33;76.49
74242;BME280;62599;49.146;10.426;2023-07-13T02:05:10;95714.53;;;16.28;76.82
74242;BME280;62599;49.146;10.426;2023-07-13T02:07:36;95710.22;;;16.24;76.86
74242;BME280;62599;49.146;10.426;2023-07-13T02:10:02;95711.28;;;16.19;77.04
74242;BME280;62599;49.146;10.426;2023-07-13T02:12:28;95715.16;;;16.18;76.99
74242;BME280;62599;49.146;10.426;2023-07-13T02:14:53;95709.38;;;16.20;76.87
74242;BME280;62599;49.146;10.426;2023-07-13T02:17:18;95709.84;;;16.25;75.70
74242;BME280;62599;49.146;10.426;2023-07-13T02:19:43;95711.38;;;16.26;75.07
74242;BME280;62599;49.146;10.426;2023-07-13T02:22:09;95704.78;;;16.24;75.03
74242;BME280;62599;49.146;10.426;2023-07-13T02:24:34;95702.00;;;16.20;74.58
74242;BME280;62599;49.146;10.426;2023-07-13T02:27:00;95707.78;;;16.19;74.76
74242;BME280;62599;49.146;10.426;2023-07-13T02:29:25;95698.09;;;16.18;74.45
74242;BME280;62599;49.146;10.426;2023-07-13T02:31:51;95700.38;;;16.16;73.99
74242;BME280;62599;49.146;10.426;2023-07-13T02:34:16;95707.34;;;16.13;73.96
74242;BME280;62599;49.146;10.426;2023-07-13T02:36:41;95704.25;;;16.15;74.11
74242;BME280;62599;49.146;10.426;2023-07-13T02:39:12;95709.69;;;16.15;73.17
74242;BME280;62599;49.146;10.426;2023-07-13T02:41:37;95710.72;;;16.06;73.37
74242;BME280;62599;49.146;10.426;2023-07-13T02:44:03;95710.31;;;16.04;73.08
74242;BME280;62599;49.146;10.426;2023-07-13T02:46:33;95712.91;;;15.97;73.54
74242;BME280;62599;49.146;10.426;2023-07-13T02:48:59;95719.09;;;15.94;73.56
74242;BME280;62599;49.146;10.426;2023-07-13T02:51:25;95716.28;;;15.87;73.73
74242;BME280;62599;49.146;10.426;2023-07-13T02:53:50;95715.47;;;15.86;73.20
74242;BME280;62599;49.146;10.426;2023-07-13T02:56:15;95713.84;;;15.82;74.05
74242;BME280;62599;49.146;10.426;2023-07-13T02:58:41;95713.78;;;15.78;74.50
74242;BME280;62599;49.146;10.426;2023-07-13T03:01:10;95723.75;;;15.71;74.03
74242;BME280;62599;49.146;10.426;2023-07-13T03:03:36;95727.19;;;15.68;74.80
74242;BME280;62599;49.146;10.426;2023-07-13T03:06:03;95722.91;;;15.67;74.60
74242;BME280;62599;49.146;10.426;2023-07-13T03:08:30;95728.34;;;15.67;75.02
74242;BME280;62599;49.146;10.426;2023-07-13T03:11:00;95723.22;;;15.61;74.45
74242;BME280;62599;49.146;10.426;2023-07-13T03:13:25;95728.88;;;15.53;75.17
74242;BME280;62599;49.146;10.426;2023-07-13T03:15:51;95733.81;;;15.47;75.64
74242;BME280;62599;49.146;10.426;2023-07-13T03:18:16;95731.09;;;15.47;75.77
74242;BME280;62599;49.146;10.426;2023-07-13T03:20:41;95742.31;;;15.46;75.68
74242;BME280;62599;49.146;10.426;2023-07-13T03:23:07;95746.91;;;15.41;76.19
74242;BME280;62599;49.146;10.426;2023-07-13T03:25:32;95747.63;;;15.38;76.52
74242;BME280;62599;49.146;10.426;2023-07-13T03:27:57;95746.44;;;15.36;76.45
74242;BME280;62599;49.146;10.426;2023-07-13T03:30:23;95749.53;;;15.38;76.61
74242;BME280;62599;49.146;10.426;2023-07-13T03:32:48;95757.28;;;15.36;76.74
74242;BME280;62599;49.146;10.426;2023-07-13T03:35:14;95759.63;;;15.37;76.70
74242;BME280;62599;49.146;10.426;2023-07-13T03:37:39;95760.34;;;15.34;76.62
74242;BME280;62599;49.146;10.426;2023-07-13T03:40:08;95762.34;;;15.37;76.40
74242;BME280;62599;49.146;10.426;2023-07-13T03:42:34;95762.81;;;15.43;76.51
74242;BME280;62599;49.146;10.426;2023-07-13T03:45:00;95771.41;;;15.45;75.64
74242;BME280;62599;49.146;10.426;2023-07-13T03:47:25;95765.53;;;15.43;75.76
74242;BME280;62599;49.146;10.426;2023-07-13T03:49:51;95772.53;;;15.44;75.85
74242;BME280;62599;49.146;10.426;2023-07-13T03:52:16;95771.84;;;15.47;76.06
74242;BME280;62599;49.146;10.426;2023-07-13T03:54:42;95771.03;;;15.47;75.33
74242;BME280;62599;49.146;10.426;2023-07-13T03:57:08;95766.28;;;15.40;75.81
74242;BME280;62599;49.146;10.426;2023-07-13T03:59:33;95759.63;;;15.37;76.11
74242;BME280;62599;49.146;10.426;2023-07-13T04:01:59;95768.91;;;15.36;76.26
74242;BME280;62599;49.146;10.426;2023-07-13T04:04:24;95767.63;;;15.30;76.59
74242;BME280;62599;49.146;10.426;2023-07-13T04:06:50;95764.13;;;15.30;76.87
74242;BME280;62599;49.146;10.426;2023-07-13T04:09:18;95772.75;;;15.35;76.55
74242;BME280;62599;49.146;10.426;2023-07-13T04:11:44;95771.25;;;15.38;76.71
74242;BME280;62599;49.146;10.426;2023-07-13T04:14:09;95768.63;;;15.41;76.42
74242;BME280;62599;49.146;10.426;2023-07-13T04:16:34;95780.09;;;15.54;75.78
74242;BME280;62599;49.146;10.426;2023-07-13T04:19:00;95781.34;;;15.60;74.63
74242;BME280;62599;49.146;10.426;2023-07-13T04:21:27;95780.28;;;15.65;74.74
74242;BME280;62599;49.146;10.426;2023-07-13T04:23:53;95781.22;;;15.73;73.63
74242;BME280;62599;49.146;10.426;2023-07-13T04:26:19;95786.78;;;15.80;73.94
74242;BME280;62599;49.146;10.426;2023-07-13T04:28:47;95791.97;;;15.88;73.05
74242;BME280;62599;49.146;10.426;2023-07-13T04:31:13;95794.53;;;16.04;72.60
74242;BME280;62599;49.146;10.426;2023-07-13T04:33:38;95794.66;;;16.11;72.44
74242;BME280;62599;49.146;10.426;2023-07-13T04:36:04;95800.81;;;16.08;72.13
74242;BME280;62599;49.146;10.426;2023-07-13T04:38:31;95791.94;;;16.11;72.20
74242;BME280;62599;49.146;10.426;2023-07-13T04:40:59;95797.38;;;16.11;71.31
74242;BME280;62599;49.146;10.426;2023-07-13T04:43:26;95793.88;;;16.11;71.40
74242;BME280;62599;49.146;10.426;2023-07-13T04:45:52;95806.63;;;16.07;71.59
74242;BME280;62599;49.146;10.426;2023-07-13T04:48:18;95809.78;;;16.09;71.56
74242;BME280;62599;49.146;10.426;2023-07-13T04:50:43;95810.63;;;16.13;71.97
74242;BME280;62599;49.146;10.426;2023-07-13T04:53:10;95808.34;;;16.19;71.28
74242;BME280;62599;49.146;10.426;2023-07-13T04:55:36;95817.06;;;16.28;71.87
74242;BME280;62599;49.146;10.426;2023-07-13T04:58:02;95814.50;;;16.39;70.93
74242;BME280;62599;49.146;10.426;2023-07-13T05:00:29;95820.94;;;16.53;70.21
74242;BME280;62599;49.146;10.426;2023-07-13T05:02:55;95827.03;;;16.73;69.16
74242;BME280;62599;49.146;10.426;2023-07-13T05:05:21;95815.97;;;16.86;68.46
74242;BME280;62599;49.146;10.426;2023-07-13T05:07:46;95824.28;;;16.96;67.99
74242;BME280;62599;49.146;10.426;2023-07-13T05:10:12;95818.25;;;17.14;67.50
74242;BME280;62599;49.146;10.426;2023-07-13T05:12:37;95826.19;;;17.26;66.82
74242;BME280;62599;49.146;10.426;2023-07-13T05:15:03;95821.59;;;17.30;65.54
74242;BME280;62599;49.146;10.426;2023-07-13T05:17:28;95827.44;;;17.32;65.53
74242;BME280;62599;49.146;10.426;2023-07-13T05:19:54;95828.63;;;17.35;65.48
74242;BME280;62599;49.146;10.426;2023-07-13T05:22:19;95829.41;;;17.35;64.63
74242;BME280;62599;49.146;10.426;2023-07-13T05:24:45;95837.56;;;17.35;64.85
74242;BME280;62599;49.146;10.426;2023-07-13T05:27:10;95836.44;;;17.36;65.05
74242;BME280;62599;49.146;10.426;2023-07-13T05:29:36;95840.38;;;17.42;64.74
74242;BME280;62599;49.146;10.426;2023-07-13T05:32:01;95842.38;;;17.45;64.17
74242;BME280;62599;49.146;10.426;2023-07-13T05:34:27;95845.09;;;17.45;64.61
74242;BME280;62599;49.146;10.426;2023-07-13T05:36:52;95843.56;;;17.48;64.02
74242;BME280;62599;49.146;10.426;2023-07-13T05:39:18;95841.97;;;17.43;63.98
74242;BME280;62599;49.146;10.426;2023-07-13T05:41:44;95840.47;;;17.49;63.53
74242;BME280;62599;49.146;10.426;2023-07-13T05:44:09;95844.09;;;17.61;63.49
74242;BME280;62599;49.146;10.426;2023-07-13T05:46:34;95846.25;;;17.78;63.56
74242;BME280;62599;49.146;10.426;2023-07-13T05:49:00;95840.91;;;17.89;62.39
74242;BME280;62599;49.146;10.426;2023-07-13T05:51:26;95840.25;;;18.02;61.45
74242;BME280;62599;49.146;10.426;2023-07-13T05:53:51;95834.88;;;18.10;61.22
74242;BME280;62599;49.146;10.426;2023-07-13T05:56:17;95839.25;;;18.21;61.31
74242;BME280;62599;49.146;10.426;2023-07-13T05:58:42;95842.00;;;18.25;60.44
74242;BME280;62599;49.146;10.426;2023-07-13T06:01:13;95844.22;;;18.09;60.85
74242;BME280;62599;49.146;10.426;2023-07-13T06:03:39;95842.59;;;18.04;61.38
74242;BME280;62599;49.146;10.426;2023-07-13T06:06:05;95841.78;;;18.00;61.60
74242;BME280;62599;49.146;10.426;2023-07-13T06:08:31;95857.28;;;17.92;61.68
74242;BME280;62599;49.146;10.426;2023-07-13T06:11:09;95858.00;;;17.86;61.62
74242;BME280;62599;49.146;10.426;2023-07-13T06:13:37;95864.63;;;17.85;61.33
74242;BME280;62599;49.146;10.426;2023-07-13T06:16:03;95865.00;;;17.83;61.13
74242;BME280;62599;49.146;10.426;2023-07-13T06:18:30;95864.81;;;18.02;61.84
74242;BME280;62599;49.146;10.426;2023-07-13T06:20:56;95864.19;;;18.20;60.99
74242;BME280;62599;49.146;10.426;2023-07-13T06:23:22;95864.19;;;18.20;60.40
74242;BME280;62599;49.146;10.426;2023-07-13T06:25:48;95860.91;;;18.03;60.31
74242;BME280;62599;49.146;10.426;2023-07-13T06:28:13;95876.06;;;17.97;60.95
74242;BME280;62599;49.146;10.426;2023-07-13T06:30:39;95869.06;;;18.00;61.35
74242;BME280;62599;49.146;10.426;2023-07-13T06:33:05;95870.19;;;17.95;60.68
74242;BME280;62599;49.146;10.426;2023-07-13T06:35:30;95869.06;;;18.00;59.98
74242;BME280;62599;49.146;10.426;2023-07-13T06:37:55;95866.09;;;18.16;60.36
74242;BME280;62599;49.146;10.426;2023-07-13T06:40:21;95865.41;;;18.29;59.54
74242;BME280;62599;49.146;10.426;2023-07-13T06:42:46;95869.72;;;18.27;58.28
74242;BME280;62599;49.146;10.426;2023-07-13T06:45:11;95873.63;;;18.33;58.47
74242;BME280;62599;49.146;10.426;2023-07-13T06:47:37;95869.34;;;18.32;58.24
74242;BME280;62599;49.146;10.426;2023-07-13T06:50:02;95867.00;;;18.31;58.11
74242;BME280;62599;49.146;10.426;2023-07-13T06:52:28;95867.44;;;18.36;57.77
74242;BME280;62599;49.146;10.426;2023-07-13T06:54:53;95874.94;;;18.50;57.95
74242;BME280;62599;49.146;10.426;2023-07-13T06:57:18;95877.88;;;18.71;57.06
74242;BME280;62599;49.146;10.426;2023-07-13T06:59:44;95881.53;;;18.93;56.84
74242;BME280;62599;49.146;10.426;2023-07-13T07:02:10;95874.91;;;18.94;55.96
74242;BME280;62599;49.146;10.426;2023-07-13T07:04:36;95880.69;;;18.82;56.40
74242;BME280;62599;49.146;10.426;2023-07-13T07:07:02;95882.56;;;18.74;57.02
74242;BME280;62599;49.146;10.426;2023-07-13T07:09:28;95890.75;;;18.74;56.32
74242;BME280;62599;49.146;10.426;2023-07-13T07:11:55;95894.91;;;18.61;57.13
74242;BME280;62599;49.146;10.426;2023-07-13T07:14:20;95902.31;;;18.61;57.74
74242;BME280;62599;49.146;10.426;2023-07-13T07:16:46;95906.63;;;18.65;57.75
74242;BME280;62599;49.146;10.426;2023-07-13T07:19:11;95899.94;;;18.56;57.35
74242;BME280;62599;49.146;10.426;2023-07-13T07:21:37;95910.00;;;18.48;56.97
74242;BME280;62599;49.146;10.426;2023-07-13T07:24:02;95913.91;;;18.47;57.43
74242;BME280;62599;49.146;10.426;2023-07-13T07:26:29;95910.44;;;18.53;57.26
74242;BME280;62599;49.146;10.426;2023-07-13T07:28:55;95901.56;;;18.64;57.46
74242;BME280;62599;49.146;10.426;2023-07-13T07:31:20;95907.56;;;18.80;57.37
74242;BME280;62599;49.146;10.426;2023-07-13T07:33:46;95904.50;;;18.85;56.93
74242;BME280;62599;49.146;10.426;2023-07-13T07:36:11;95908.81;;;18.93;56.40
74242;BME280;62599;49.146;10.426;2023-07-13T07:38:37;95917.16;;;19.15;54.94
74242;BME280;62599;49.146;10.426;2023-07-13T07:41:04;95917.50;;;19.10;54.80
74242;BME280;62599;49.146;10.426;2023-07-13T07:43:30;95919.81;;;19.04;54.10
74242;BME280;62599;49.146;10.426;2023-07-13T07:45:56;95919.03;;;19.04;53.33
74242;BME280;62599;49.146;10.426;2023-07-13T07:48:21;95924.13;;;19.09;53.80
74242;BME280;62599;49.146;10.426;2023-07-13T07:50:47;95926.91;;;19.16;53.86
74242;BME280;62599;49.146;10.426;2023-07-13T07:53:12;95923.09;;;19.31;53.37
74242;BME280;62599;49.146;10.426;2023-07-13T07:55:38;95928.22;;;19.36;52.86
74242;BME280;62599;49.146;10.426;2023-07-13T07:58:04;95925.50;;;19.43;51.48
74242;BME280;62599;49.146;10.426;2023-07-13T08:00:30;95919.38;;;19.68;51.23
74242;BME280;62599;49.146;10.426;2023-07-13T08:02:57;95924.16;;;19.92;50.78
74242;BME280;62599;49.146;10.426;2023-07-13T08:05:23;95922.25;;;20.07;51.20
74242;BME280;62599;49.146;10.426;2023-07-13T08:07:48;95910.94;;;20.09;49.08
74242;BME280;62599;49.146;10.426;2023-07-13T08:10:14;95918.34;;;20.05;48.99
74242;BME280;62599;49.146;10.426;2023-07-13T08:12:40;95932.81;;;20.02;49.70
74242;BME280;62599;49.146;10.426;2023-07-13T08:15:06;95932.81;;;20.09;50.26
74242;BME280;62599;49.146;10.426;2023-07-13T08:17:34;95936.69;;;20.04;49.53
74242;BME280;62599;49.146;10.426;2023-07-13T08:19:59;95933.22;;;20.18;49.75
74242;BME280;62599;49.146;10.426;2023-07-13T08:22:25;95930.53;;;20.39;49.74
74242;BME280;62599;49.146;10.426;2023-07-13T08:24:50;95932.94;;;20.55;48.90
74242;BME280;62599;49.146;10.426;2023-07-13T08:27:24;95923.53;;;20.63;47.43
74242;BME280;62599;49.146;10.426;2023-07-13T08:29:51;95937.63;;;20.83;46.08
74242;BME280;62599;49.146;10.426;2023-07-13T08:32:17;95943.09;;;20.83;45.39
74242;BME280;62599;49.146;10.426;2023-07-13T08:34:43;95932.13;;;20.69;45.66
74242;BME280;62599;49.146;10.426;2023-07-13T08:37:08;95935.28;;;20.64;46.10
74242;BME280;62599;49.146;10.426;2023-07-13T08:39:34;95932.13;;;20.76;45.08
74242;BME280;62599;49.146;10.426;2023-07-13T08:42:07;95927.44;;;20.80;44.65
74242;BME280;62599;49.146;10.426;2023-07-13T08:45:19;95930.59;;;20.82;44.04
74242;BME280;62599;49.146;10.426;2023-07-13T08:47:48;95935.28;;;20.85;45.35
74242;BME280;62599;49.146;10.426;2023-07-13T08:50:20;95945.44;;;21.03;43.50
74242;BME280;62599;49.146;10.426;2023-07-13T08:52:46;95931.75;;;21.10;44.77
74242;BME280;62599;49.146;10.426;2023-07-13T08:55:18;95942.28;;;21.08;44.42
74242;BME280;62599;49.146;10.426;2023-07-13T08:57:49;95938.38;;;21.12;44.19
74242;BME280;62599;49.146;10.426;2023-07-13T09:00:18;95939.13;;;21.27;43.37
74242;BME280;62599;49.146;10.426;2023-07-13T09:02:54;95951.66;;;21.50;42.26
74242;BME280;62599;49.146;10.426;2023-07-13T09:05:31;95944.19;;;21.61;41.55
74242;BME280;62599;49.146;10.426;2023-07-13T09:08:27;95952.38;;;21.72;40.84
74242;BME280;62599;49.146;10.426;2023-07-13T09:11:26;95954.75;;;21.59;40.29
74242;BME280;62599;49.146;10.426;2023-07-13T09:16:29;95943.63;;;21.98;41.50
74242;BME280;62599;49.146;10.426;2023-07-13T09:18:59;95940.88;;;22.02;40.71
74242;BME280;62599;49.146;10.426;2023-07-13T09:21:31;95951.47;;;21.96;40.73
74242;BME280;62599;49.146;10.426;2023-07-13T09:24:21;95959.31;;;21.98;40.69
74242;BME280;62599;49.146;10.426;2023-07-13T09:26:45;95961.28;;;21.94;39.35
74242;BME280;62599;49.146;10.426;2023-07-13T09:29:31;95943.78;;;21.62;39.91
74242;BME280;62599;49.146;10.426;2023-07-13T09:32:02;95950.06;;;21.56;40.64
74242;BME280;62599;49.146;10.426;2023-07-13T09:34:29;95949.19;;;21.80;41.85
74242;BME280;62599;49.146;10.426;2023-07-13T09:36:57;95942.47;;;21.96;39.34
74242;BME280;62599;49.146;10.426;2023-07-13T09:39:27;95943.25;;;21.93;39.89
74242;BME280;62599;49.146;10.426;2023-07-13T09:42:03;95934.59;;;22.01;39.87
74242;BME280;62599;49.146;10.426;2023-07-13T09:44:44;95939.72;;;21.96;39.48
74242;BME280;62599;49.146;10.426;2023-07-13T09:47:26;95947.56;;;22.01;39.70
74242;BME280;62599;49.146;10.426;2023-07-13T09:50:08;95939.97;;;22.30;39.98
74242;BME280;62599;49.146;10.426;2023-07-13T09:52:48;95944.81;;;22.67;38.12
74242;BME280;62599;49.146;10.426;2023-07-13T09:55:33;95944.16;;;23.01;38.98
74242;BME280;62599;49.146;10.426;2023-07-13T09:58:05;95937.28;;;23.23;38.45
74242;BME280;62599;49.146;10.426;2023-07-13T10:00:32;95943.94;;;23.26;36.90
74242;BME280;62599;49.146;10.426;2023-07-13T10:03:05;95950.63;;;22.76;37.91
74242;BME280;62599;49.146;10.426;2023-07-13T10:05:40;95953.53;;;22.55;38.33
74242;BME280;62599;49.146;10.426;2023-07-13T10:08:08;95948.06;;;22.55;38.41
74242;BME280;62599;49.146;10.426;2023-07-13T10:10:39;95941.66;;;22.69;38.23
74242;BME280;62599;49.146;10.426;2023-07-13T10:13:05;95937.59;;;22.88;37.50
74242;BME280;62599;49.146;10.426;2023-07-13T10:15:31;95959.09;;;23.00;38.33
74242;BME280;62599;49.146;10.426;2023-07-13T10:17:58;95949.88;;;23.24;37.91
74242;BME280;62599;49.146;10.426;2023-07-13T10:20:24;95943.41;;;23.38;37.50
74242;BME280;62599;49.146;10.426;2023-07-13T10:22:54;95956.59;;;23.58;37.31
74242;BME280;62599;49.146;10.426;2023-07-13T10:25:41;95952.31;;;23.53;36.55
74242;BME280;62599;49.146;10.426;2023-07-13T10:30:46;95949.72;;;23.39;37.07
74242;BME280;62599;49.146;10.426;2023-07-13T10:33:13;95966.91;;;23.05;37.34
74242;BME280;62599;49.146;10.426;2023-07-13T10:35:43;95975.69;;;22.82;37.97
74242;BME280;62599;49.146;10.426;2023-07-13T10:38:14;95961.56;;;22.83;37.99
74242;BME280;62599;49.146;10.426;2023-07-13T10:40:55;95958.03;;;22.83;37.79
74242;BME280;62599;49.146;10.426;2023-07-13T10:43:32;95959.03;;;23.07;37.35
74242;BME280;62599;49.146;10.426;2023-07-13T10:46:00;95941.03;;;23.44;36.57
74242;BME280;62599;49.146;10.426;2023-07-13T10:48:27;95946.06;;;23.87;36.30
74242;BME280;62599;49.146;10.426;2023-07-13T10:50:54;95945.63;;;24.22;36.08
74242;BME280;62599;49.146;10.426;2023-07-13T10:53:31;95957.56;;;24.70;35.27
74242;BME280;62599;49.146;10.426;2023-07-13T10:56:24;95948.50;;;24.69;34.29
74242;BME280;62599;49.146;10.426;2023-07-13T10:59:02;95941.47;;;24.38;34.37
74242;BME280;62599;49.146;10.426;2023-07-13T11:01:50;95940.38;;;24.32;34.50
74242;BME280;62599;49.146;10.426;2023-07-13T11:04:16;95946.25;;;24.61;33.35
74242;BME280;62599;49.146;10.426;2023-07-13T11:06:43;95943.38;;;24.95;34.73
74242;BME280;62599;49.146;10.426;2023-07-13T11:09:39;95952.88;;;25.17;33.75
74242;BME280;62599;49.146;10.426;2023-07-13T11:20:10;95933.31;;;24.58;34.67
74242;BME280;62599;49.146;10.426;2023-07-13T11:25:36;95927.16;;;25.87;32.54
74242;BME280;62599;49.146;10.426;2023-07-13T11:30:38;95932.34;;;26.22;31.83
74242;BME280;62599;49.146;10.426;2023-07-13T11:33:23;95947.34;;;25.61;32.11
74242;BME280;62599;49.146;10.426;2023-07-13T11:36:21;95930.97;;;25.30;32.60
74242;BME280;62599;49.146;10.426;2023-07-13T11:39:11;95943.50;;;25.35;33.43
74242;BME280;62599;49.146;10.426;2023-07-13T11:41:45;95941.00;;;25.20;33.66
74242;BME280;62599;49.146;10.426;2023-07-13T11:44:17;95939.56;;;25.12;33.72
74242;BME280;62599;49.146;10.426;2023-07-13T11:46:51;95935.66;;;25.10;34.00
74242;BME280;62599;49.146;10.426;2023-07-13T11:49:19;95945.91;;;25.09;34.26
74242;BME280;62599;49.146;10.426;2023-07-13T11:51:45;95934.63;;;24.49;33.64
74242;BME280;62599;49.146;10.426;2023-07-13T11:54:27;95939.97;;;24.60;34.68
74242;BME280;62599;49.146;10.426;2023-07-13T11:56:55;95940.78;;;24.84;34.77
74242;BME280;62599;49.146;10.426;2023-07-13T11:59:23;95946.34;;;25.31;33.51
74242;BME280;62599;49.146;10.426;2023-07-13T12:01:51;95934.41;;;25.78;33.06
74242;BME280;62599;49.146;10.426;2023-07-13T12:04:26;95934.75;;;26.20;32.58
74242;BME280;62599;49.146;10.426;2023-07-13T12:06:58;95952.84;;;26.04;32.31
74242;BME280;62599;49.146;10.426;2023-07-13T12:09:26;95948.16;;;26.01;32.89
74242;BME280;62599;49.146;10.426;2023-07-13T12:11:52;95935.34;;;25.91;32.59
74242;BME280;62599;49.146;10.426;2023-07-13T12:14:18;95937.88;;;25.42;32.67
74242;BME280;62599;49.146;10.426;2023-07-13T12:16:46;95947.34;;;25.17;34.27
74242;BME280;62599;49.146;10.426;2023-07-13T12:19:21;95941.25;;;24.79;34.12
74242;BME280;62599;49.146;10.426;2023-07-13T12:21:48;95948.09;;;24.71;35.20
74242;BME280;62599;49.146;10.426;2023-07-13T12:24:19;95929.38;;;24.59;33.48
74242;BME280;62599;49.146;10.426;2023-07-13T12:26:51;95935.78;;;24.52;35.36
74242;BME280;62599;49.146;10.426;2023-07-13T12:29:17;95930.63;;;24.54;34.14
74242;BME280;62599;49.146;10.426;2023-07-13T12:31:45;95940.75;;;24.61;33.26
74242;BME280;62599;49.146;10.426;2023-07-13T12:34:14;95936.78;;;24.89;33.87
74242;BME280;62599;49.146;10.426;2023-07-13T12:36:49;95945.59;;;25.04;33.18
74242;BME280;62599;49.146;10.426;2023-07-13T12:39:19;95935.56;;;24.90;33.32
74242;BME280;62599;49.146;10.426;2023-07-13T12:41:45;95937.25;;;25.07;33.79
74242;BME280;62599;49.146;10.426;2023-07-13T12:44:16;95932.94;;;25.30;34.10
74242;BME280;62599;49.146;10.426;2023-07-13T12:47:03;95938.41;;;25.33;33.19
74242;BME280;62599;49.146;10.426;2023-07-13T12:49:32;95942.34;;;25.76;33.39
74242;BME280;62599;49.146;10.426;2023-07-13T12:52:01;95932.50;;;25.75;32.35
74242;BME280;62599;49.146;10.426;2023-07-13T12:54:28;95932.75;;;25.40;32.79
74242;BME280;62599;49.146;10.426;2023-07-13T12:56:54;95934.56;;;25.04;32.86
74242;BME280;62599;49.146;10.426;2023-07-13T12:59:23;95932.63;;;24.77;33.41
74242;BME280;62599;49.146;10.426;2023-07-13T13:01:51;95931.31;;;24.85;34.59
74242;BME280;62599;49.146;10.426;2023-07-13T13:04:16;95936.03;;;25.12;33.49
74242;BME280;62599;49.146;10.426;2023-07-13T13:06:46;95935.66;;;25.10;33.83
74242;BME280;62599;49.146;10.426;2023-07-13T13:09:14;95931.59;;;24.91;33.76
74242;BME280;62599;49.146;10.426;2023-07-13T13:11:40;95926.16;;;24.64;33.76
74242;BME280;62599;49.146;10.426;2023-07-13T13:14:06;95927.09;;;25.28;34.29